sensor_id;sensor_type;location;lat;lon;timestamp;pressure;altitude;pressure_sealevel;temperature
76476;BMP280;65308;50.078;14.854;2024-01-06T00:01:05;98024.25;;;6.34
76476;BMP280;65308;50.078;14.854;2024-01-06T00:03:31;98012.47;;;6.35
76476;BMP280;65308;50.078;14.854;2024-01-06T00:05:58;98004.81;;;6.37
76476;BMP280;65308;50.078;14.854;2024-01-06T00:08:25;98011.19;;;6.39
76476;BMP280;65308;50.078;14.854;2024-01-06T00:10:51;98011.47;;;6.42
76476;BMP280;65308;50.078;14.854;2024-01-06T00:13:19;98010.47;;;6.48
76476;BMP280;65308;50.078;14.854;2024-01-06T00:15:45;98005.75;;;6.52
76476;BMP280;65308;50.078;14.854;2024-01-06T00:18:14;98006.78;;;6.55
76476;BMP280;65308;50.078;14.854;2024-01-06T00:20:41;98006.38;;;6.56
76476;BMP280;65308;50.078;14.854;2024-01-06T00:23:08;98000.50;;;6.61
76476;BMP280;65308;50.078;14.854;2024-01-06T00:25:34;98000.50;;;6.61
76476;BMP280;65308;50.078;14.854;2024-01-06T00:28:01;97997.84;;;6.61
76476;BMP280;65308;50.078;14.854;2024-01-06T00:30:28;97998.13;;;6.63
76476;BMP280;65308;50.078;14.854;2024-01-06T00:32:54;98002.72;;;6.63
76476;BMP280;65308;50.078;14.854;2024-01-06T00:35:22;97987.47;;;6.63
76476;BMP280;65308;50.078;14.854;2024-01-06T00:37:49;98001.22;;;6.62
76476;BMP280;65308;50.078;14.854;2024-01-06T00:40:16;98001.97;;;6.62
76476;BMP280;65308;50.078;14.854;2024-01-06T00:42:44;98004.75;;;6.59
76476;BMP280;65308;50.078;14.854;2024-01-06T00:45:10;97997.66;;;6.56
76476;BMP280;65308;50.078;14.854;2024-01-06T00:47:37;98001.47;;;6.55
76476;BMP280;65308;50.078;14.854;2024-01-06T00:50:05;98009.91;;;6.53
76476;BMP280;65308;50.078;14.854;2024-01-06T00:52:33;98008.72;;;6.54
76476;BMP280;65308;50.078;14.854;2024-01-06T00:54:59;98007.97;;;6.54
76476;BMP280;65308;50.078;14.854;2024-01-06T00:57:26;98010.16;;;6.46
76476;BMP280;65308;50.078;14.854;2024-01-06T00:59:53;98021.97;;;6.45
76476;BMP280;65308;50.078;14.854;2024-01-06T01:02:20;98020.78;;;6.46
76476;BMP280;65308;50.078;14.854;2024-01-06T01:04:46;98024.63;;;6.45
76476;BMP280;65308;50.078;14.854;2024-01-06T01:07:13;98028.00;;;6.46
76476;BMP280;65308;50.078;14.854;2024-01-06T01:09:41;98024.06;;;6.50
76476;BMP280;65308;50.078;14.854;2024-01-06T01:12:07;98023.19;;;6.53
76476;BMP280;65308;50.078;14.854;2024-01-06T01:14:34;98020.81;;;6.55
76476;BMP280;65308;50.078;14.854;2024-01-06T01:17:01;98021.88;;;6.58
76476;BMP280;65308;50.078;14.854;2024-01-06T01:19:28;98027.63;;;6.56
76476;BMP280;65308;50.078;14.854;2024-01-06T01:21:54;98033.22;;;6.49
76476;BMP280;65308;50.078;14.854;2024-01-06T01:24:22;98037.47;;;6.47
76476;BMP280;65308;50.078;14.854;2024-01-06T01:26:50;98046.63;;;6.46
76476;BMP280;65308;50.078;14.854;2024-01-06T01:29:16;98042.81;;;6.47
76476;BMP280;65308;50.078;14.854;2024-01-06T01:31:45;98047.66;;;6.48
76476;BMP280;65308;50.078;14.854;2024-01-06T01:34:12;98050.66;;;6.50
76476;BMP280;65308;50.078;14.854;2024-01-06T01:36:38;98053.31;;;6.50
76476;BMP280;65308;50.078;14.854;2024-01-06T01:39:05;98053.16;;;6.54
76476;BMP280;65308;50.078;14.854;2024-01-06T01:41:32;98050.94;;;6.52
76476;BMP280;65308;50.078;14.854;2024-01-06T01:44:00;98047.41;;;6.55
76476;BMP280;65308;50.078;14.854;2024-01-06T01:46:27;98048.78;;;6.60
76476;BMP280;65308;50.078;14.854;2024-01-06T01:48:54;98041.56;;;6.60
76476;BMP280;65308;50.078;14.854;2024-01-06T01:51:23;98040.22;;;6.65
76476;BMP280;65308;50.078;14.854;2024-01-06T01:53:51;98040.09;;;6.69
76476;BMP280;65308;50.078;14.854;2024-01-06T01:56:17;98037.75;;;6.71
76476;BMP280;65308;50.078;14.854;2024-01-06T01:58:45;98041.47;;;6.73
76476;BMP280;65308;50.078;14.854;2024-01-06T02:01:13;98042.19;;;6.74
76476;BMP280;65308;50.078;14.854;2024-01-06T02:03:41;98039.81;;;6.76
76476;BMP280;65308;50.078;14.854;2024-01-06T02:06:08;98046.78;;;6.73
76476;BMP280;65308;50.078;14.854;2024-01-06T02:08:35;98037.63;;;6.74
76476;BMP280;65308;50.078;14.854;2024-01-06T02:11:03;98039.22;;;6.72
76476;BMP280;65308;50.078;14.854;2024-01-06T02:13:32;98043.66;;;6.75
76476;BMP280;65308;50.078;14.854;2024-01-06T02:15:59;98039.81;;;6.76
76476;BMP280;65308;50.078;14.854;2024-01-06T02:18:27;98042.06;;;6.77
76476;BMP280;65308;50.078;14.854;2024-01-06T02:20:57;98041.59;;;6.79
76476;BMP280;65308;50.078;14.854;2024-01-06T02:23:26;98035.44;;;6.82
76476;BMP280;65308;50.078;14.854;2024-01-06T02:25:52;98033.06;;;6.84
76476;BMP280;65308;50.078;14.854;2024-01-06T02:28:19;98038.66;;;6.86
76476;BMP280;65308;50.078;14.854;2024-01-06T02:30:46;98033.25;;;6.90
76476;BMP280;65308;50.078;14.854;2024-01-06T02:33:12;98035.91;;;6.90
76476;BMP280;65308;50.078;14.854;2024-01-06T02:35:39;98040.03;;;6.91
76476;BMP280;65308;50.078;14.854;2024-01-06T02:38:06;98032.50;;;6.89
76476;BMP280;65308;50.078;14.854;2024-01-06T02:40:35;98029.84;;;6.89
76476;BMP280;65308;50.078;14.854;2024-01-06T02:43:02;98028.22;;;6.92
76476;BMP280;65308;50.078;14.854;2024-01-06T02:45:28;98040.03;;;6.91
76476;BMP280;65308;50.078;14.854;2024-01-06T02:47:55;98036.94;;;6.92
76476;BMP280;65308;50.078;14.854;2024-01-06T02:50:21;98033.97;;;6.90
76476;BMP280;65308;50.078;14.854;2024-01-06T02:52:48;98032.50;;;6.89
76476;BMP280;65308;50.078;14.854;2024-01-06T02:55:15;98036.06;;;6.95
76476;BMP280;65308;50.078;14.854;2024-01-06T02:57:43;98037.81;;;6.89
76476;BMP280;65308;50.078;14.854;2024-01-06T03:00:10;98038.88;;;6.92
76476;BMP280;65308;50.078;14.854;2024-01-06T03:02:38;98024.06;;;6.91
76476;BMP280;65308;50.078;14.854;2024-01-06T03:05:07;98032.06;;;6.91
76476;BMP280;65308;50.078;14.854;2024-01-06T03:07:34;98027.47;;;6.91
76476;BMP280;65308;50.078;14.854;2024-01-06T03:10:01;98025.56;;;6.92
76476;BMP280;65308;50.078;14.854;2024-01-06T03:12:28;98034.28;;;6.92
76476;BMP280;65308;50.078;14.854;2024-01-06T03:14:56;98034.72;;;6.91
76476;BMP280;65308;50.078;14.854;2024-01-06T03:17:22;98033.97;;;6.90
76476;BMP280;65308;50.078;14.854;2024-01-06T03:19:49;98029.41;;;6.91
76476;BMP280;65308;50.078;14.854;2024-01-06T03:22:16;98027.78;;;6.93
76476;BMP280;65308;50.078;14.854;2024-01-06T03:24:42;98034.59;;;6.94
76476;BMP280;65308;50.078;14.854;2024-01-06T03:27:09;98035.16;;;6.98
76476;BMP280;65308;50.078;14.854;2024-01-06T03:29:35;98026.03;;;6.99
76476;BMP280;65308;50.078;14.854;2024-01-06T03:32:05;98026.75;;;7.00
76476;BMP280;65308;50.078;14.854;2024-01-06T03:34:32;98026.75;;;7.00
76476;BMP280;65308;50.078;14.854;2024-01-06T03:36:59;98025.28;;;6.99
76476;BMP280;65308;50.078;14.854;2024-01-06T03:39:25;98022.19;;;7.00
76476;BMP280;65308;50.078;14.854;2024-01-06T03:41:52;98026.03;;;6.99
76476;BMP280;65308;50.078;14.854;2024-01-06T03:44:18;98030.63;;;6.99
76476;BMP280;65308;50.078;14.854;2024-01-06T03:46:45;98031.34;;;6.99
76476;BMP280;65308;50.078;14.854;2024-01-06T03:49:13;98027.50;;;7.00
76476;BMP280;65308;50.078;14.854;2024-01-06T03:51:39;98032.09;;;7.00
76476;BMP280;65308;50.078;14.854;2024-01-06T03:54:06;98029.84;;;6.98
76476;BMP280;65308;50.078;14.854;2024-01-06T03:56:33;98039.34;;;6.99
76476;BMP280;65308;50.078;14.854;2024-01-06T03:58:59;98040.81;;;7.00
76476;BMP280;65308;50.078;14.854;2024-01-06T04:01:26;98037.84;;;7.07
76476;BMP280;65308;50.078;14.854;2024-01-06T04:03:53;98033.75;;;7.06
76476;BMP280;65308;50.078;14.854;2024-01-06T04:06:21;98029.63;;;7.05
76476;BMP280;65308;50.078;14.854;2024-01-06T04:08:48;98026.97;;;7.05
76476;BMP280;65308;50.078;14.854;2024-01-06T04:11:15;98028.44;;;7.06
76476;BMP280;65308;50.078;14.854;2024-01-06T04:13:43;98024.56;;;7.07
76476;BMP280;65308;50.078;14.854;2024-01-06T04:16:10;98025.16;;;7.02
76476;BMP280;65308;50.078;14.854;2024-01-06T04:18:36;98017.91;;;6.94
76476;BMP280;65308;50.078;14.854;2024-01-06T04:21:03;98018.03;;;6.90
76476;BMP280;65308;50.078;14.854;2024-01-06T04:23:32;98018.63;;;6.85
76476;BMP280;65308;50.078;14.854;2024-01-06T04:25:58;98015.00;;;6.79
76476;BMP280;65308;50.078;14.854;2024-01-06T04:28:25;98012.03;;;6.77
76476;BMP280;65308;50.078;14.854;2024-01-06T04:30:52;98009.84;;;6.75
76476;BMP280;65308;50.078;14.854;2024-01-06T04:33:18;98016.78;;;6.73
76476;BMP280;65308;50.078;14.854;2024-01-06T04:35:45;98012.31;;;6.70
76476;BMP280;65308;50.078;14.854;2024-01-06T04:38:12;98018.19;;;6.65
76476;BMP280;65308;50.078;14.854;2024-01-06T04:40:40;98019.84;;;6.62
76476;BMP280;65308;50.078;14.854;2024-01-06T04:43:07;98021.75;;;6.61
76476;BMP280;65308;50.078;14.854;2024-01-06T04:45:33;98026.03;;;6.59
76476;BMP280;65308;50.078;14.854;2024-01-06T04:48:02;98026.75;;;6.59
76476;BMP280;65308;50.078;14.854;2024-01-06T04:50:29;98028.56;;;6.62
76476;BMP280;65308;50.078;14.854;2024-01-06T04:52:57;98036.38;;;6.66
76476;BMP280;65308;50.078;14.854;2024-01-06T04:55:23;98034.03;;;6.68
76476;BMP280;65308;50.078;14.854;2024-01-06T04:57:51;98032.75;;;6.73
76476;BMP280;65308;50.078;14.854;2024-01-06T05:00:18;98041.28;;;6.77
76476;BMP280;65308;50.078;14.854;2024-01-06T05:02:45;98041.91;;;6.81
76476;BMP280;65308;50.078;14.854;2024-01-06T05:05:11;98036.19;;;6.82
76476;BMP280;65308;50.078;14.854;2024-01-06T05:07:38;98042.09;;;6.87
76476;BMP280;65308;50.078;14.854;2024-01-06T05:10:06;98033.97;;;6.90
76476;BMP280;65308;50.078;14.854;2024-01-06T05:12:33;98042.28;;;6.92
76476;BMP280;65308;50.078;14.854;2024-01-06T05:15:01;98046.84;;;6.92
76476;BMP280;65308;50.078;14.854;2024-01-06T05:17:27;98043.00;;;6.93
76476;BMP280;65308;50.078;14.854;2024-01-06T05:19:54;98047.16;;;6.94
76476;BMP280;65308;50.078;14.854;2024-01-06T05:22:21;98041.41;;;6.95
76476;BMP280;65308;50.078;14.854;2024-01-06T05:24:47;98043.59;;;6.97
76476;BMP280;65308;50.078;14.854;2024-01-06T05:27:18;98045.06;;;6.98
76476;BMP280;65308;50.078;14.854;2024-01-06T05:29:45;98057.94;;;6.99
76476;BMP280;65308;50.078;14.854;2024-01-06T05:32:12;98054.09;;;7.00
76476;BMP280;65308;50.078;14.854;2024-01-06T05:34:39;98063.88;;;6.94
76476;BMP280;65308;50.078;14.854;2024-01-06T05:37:05;98068.00;;;6.95
76476;BMP280;65308;50.078;14.854;2024-01-06T05:39:32;98067.53;;;6.97
76476;BMP280;65308;50.078;14.854;2024-01-06T05:41:58;98065.19;;;6.99
76476;BMP280;65308;50.078;14.854;2024-01-06T05:44:25;98061.66;;;7.02
76476;BMP280;65308;50.078;14.854;2024-01-06T05:46:52;98073.03;;;7.02
76476;BMP280;65308;50.078;14.854;2024-01-06T05:49:20;98076.88;;;7.01
76476;BMP280;65308;50.078;14.854;2024-01-06T05:51:50;98076.16;;;7.01
76476;BMP280;65308;50.078;14.854;2024-01-06T05:54:17;98073.91;;;6.99
76476;BMP280;65308;50.078;14.854;2024-01-06T05:56:45;98085.28;;;7.00
76476;BMP280;65308;50.078;14.854;2024-01-06T05:59:12;98089.72;;;7.03
76476;BMP280;65308;50.078;14.854;2024-01-06T06:01:38;98091.22;;;7.04
76476;BMP280;65308;50.078;14.854;2024-01-06T06:04:05;98102.19;;;7.06
76476;BMP280;65308;50.078;14.854;2024-01-06T06:06:33;98103.81;;;7.03
76476;BMP280;65308;50.078;14.854;2024-01-06T06:08:59;98098.03;;;7.05
76476;BMP280;65308;50.078;14.854;2024-01-06T06:11:26;98102.63;;;7.04
76476;BMP280;65308;50.078;14.854;2024-01-06T06:13:52;98107.63;;;7.02
76476;BMP280;65308;50.078;14.854;2024-01-06T06:16:19;98113.25;;;7.04
76476;BMP280;65308;50.078;14.854;2024-01-06T06:18:46;98116.50;;;7.08
76476;BMP280;65308;50.078;14.854;2024-01-06T06:21:12;98119.81;;;7.13
76476;BMP280;65308;50.078;14.854;2024-01-06T06:23:40;98129.56;;;7.16
76476;BMP280;65308;50.078;14.854;2024-01-06T06:26:07;98121.88;;;7.18
76476;BMP280;65308;50.078;14.854;2024-01-06T06:28:34;98123.97;;;7.23
76476;BMP280;65308;50.078;14.854;2024-01-06T06:31:01;98132.59;;;7.27
76476;BMP280;65308;50.078;14.854;2024-01-06T06:33:27;98139.66;;;7.30
76476;BMP280;65308;50.078;14.854;2024-01-06T06:35:54;98136.13;;;7.33
76476;BMP280;65308;50.078;14.854;2024-01-06T06:38:20;98141.75;;;7.35
76476;BMP280;65308;50.078;14.854;2024-01-06T06:40:48;98141.75;;;7.35
76476;BMP280;65308;50.078;14.854;2024-01-06T06:43:15;98141.34;;;7.37
76476;BMP280;65308;50.078;14.854;2024-01-06T06:45:42;98147.69;;;7.39
76476;BMP280;65308;50.078;14.854;2024-01-06T06:48:08;98154.47;;;7.40
76476;BMP280;65308;50.078;14.854;2024-01-06T06:50:35;98151.38;;;7.42
76476;BMP280;65308;50.078;14.854;2024-01-06T06:53:02;98146.50;;;7.40
76476;BMP280;65308;50.078;14.854;2024-01-06T06:55:28;98146.06;;;7.42
76476;BMP280;65308;50.078;14.854;2024-01-06T06:57:56;98157.75;;;7.44
76476;BMP280;65308;50.078;14.854;2024-01-06T07:00:23;98152.00;;;7.46
76476;BMP280;65308;50.078;14.854;2024-01-06T07:02:49;98164.88;;;7.47
76476;BMP280;65308;50.078;14.854;2024-01-06T07:05:16;98169.78;;;7.49
76476;BMP280;65308;50.078;14.854;2024-01-06T07:07:43;98153.34;;;7.50
76476;BMP280;65308;50.078;14.854;2024-01-06T07:10:22;98164.72;;;7.51
76476;BMP280;65308;50.078;14.854;2024-01-06T07:12:49;98174.66;;;7.50
76476;BMP280;65308;50.078;14.854;2024-01-06T07:15:17;98170.19;;;7.47
76476;BMP280;65308;50.078;14.854;2024-01-06T07:17:43;98175.81;;;7.49
76476;BMP280;65308;50.078;14.854;2024-01-06T07:20:10;98175.53;;;7.47
76476;BMP280;65308;50.078;14.854;2024-01-06T07:22:37;98183.50;;;7.47
76476;BMP280;65308;50.078;14.854;2024-01-06T07:25:04;98183.09;;;7.49
76476;BMP280;65308;50.078;14.854;2024-01-06T07:27:31;98180.69;;;7.51
76476;BMP280;65308;50.078;14.854;2024-01-06T07:29:57;98192.84;;;7.52
76476;BMP280;65308;50.078;14.854;2024-01-06T07:32:25;98192.72;;;7.56
76476;BMP280;65308;50.078;14.854;2024-01-06T07:34:52;98186.03;;;7.51
76476;BMP280;65308;50.078;14.854;2024-01-06T07:37:19;98190.34;;;7.48
76476;BMP280;65308;50.078;14.854;2024-01-06T07:39:45;98191.94;;;7.46
76476;BMP280;65308;50.078;14.854;2024-01-06T07:42:12;98185.53;;;7.43
76476;BMP280;65308;50.078;14.854;2024-01-06T07:44:38;98202.28;;;7.44
76476;BMP280;65308;50.078;14.854;2024-01-06T07:47:05;98193.97;;;7.42
76476;BMP280;65308;50.078;14.854;2024-01-06T07:49:33;98200.31;;;7.35
76476;BMP280;65308;50.078;14.854;2024-01-06T07:52:00;98198.41;;;7.36
76476;BMP280;65308;50.078;14.854;2024-01-06T07:54:27;98210.97;;;7.35
76476;BMP280;65308;50.078;14.854;2024-01-06T07:56:53;98221.50;;;7.39
76476;BMP280;65308;50.078;14.854;2024-01-06T07:59:20;98216.00;;;7.42
76476;BMP280;65308;50.078;14.854;2024-01-06T08:01:50;98205.38;;;7.42
76476;BMP280;65308;50.078;14.854;2024-01-06T08:04:17;98205.81;;;7.50
76476;BMP280;65308;50.078;14.854;2024-01-06T08:06:45;98205.56;;;7.57
76476;BMP280;65308;50.078;14.854;2024-01-06T08:09:11;98215.63;;;7.62
76476;BMP280;65308;50.078;14.854;2024-01-06T08:11:38;98213.59;;;7.66
76476;BMP280;65308;50.078;14.854;2024-01-06T08:14:05;98212.69;;;7.69
76476;BMP280;65308;50.078;14.854;2024-01-06T08:16:32;98215.56;;;7.75
76476;BMP280;65308;50.078;14.854;2024-01-06T08:18:58;98222.84;;;7.84
76476;BMP280;65308;50.078;14.854;2024-01-06T08:21:25;98224.16;;;7.88
76476;BMP280;65308;50.078;14.854;2024-01-06T08:23:53;98226.25;;;7.93
76476;BMP280;65308;50.078;14.854;2024-01-06T08:26:20;98220.66;;;8.00
76476;BMP280;65308;50.078;14.854;2024-01-06T08:28:47;98219.16;;;8.09
76476;BMP280;65308;50.078;14.854;2024-01-06T08:31:13;98228.09;;;8.15
76476;BMP280;65308;50.078;14.854;2024-01-06T08:33:40;98230.75;;;8.15
76476;BMP280;65308;50.078;14.854;2024-01-06T08:36:07;98232.78;;;8.11
76476;BMP280;65308;50.078;14.854;2024-01-06T08:38:34;98235.16;;;8.18
76476;BMP280;65308;50.078;14.854;2024-01-06T08:41:03;98230.47;;;8.22
76476;BMP280;65308;50.078;14.854;2024-01-06T08:43:30;98227.22;;;8.27
76476;BMP280;65308;50.078;14.854;2024-01-06T08:45:57;98236.38;;;8.35
76476;BMP280;65308;50.078;14.854;2024-01-06T08:48:23;98232.84;;;8.38
76476;BMP280;65308;50.078;14.854;2024-01-06T08:50:50;98250.94;;;8.43
76476;BMP280;65308;50.078;14.854;2024-01-06T08:53:17;98246.19;;;8.47
76476;BMP280;65308;50.078;14.854;2024-01-06T08:55:43;98252.09;;;8.52
76476;BMP280;65308;50.078;14.854;2024-01-06T08:58:12;98250.75;;;8.56
76476;BMP280;65308;50.078;14.854;2024-01-06T09:00:39;98252.41;;;8.44
76476;BMP280;65308;50.078;14.854;2024-01-06T09:03:05;98256.25;;;8.34
76476;BMP280;65308;50.078;14.854;2024-01-06T09:05:32;98250.91;;;8.25
76476;BMP280;65308;50.078;14.854;2024-01-06T09:08:00;98255.75;;;8.08
76476;BMP280;65308;50.078;14.854;2024-01-06T09:10:26;98257.94;;;8.00
76476;BMP280;65308;50.078;14.854;2024-01-06T09:12:54;98259.66;;;7.76
76476;BMP280;65308;50.078;14.854;2024-01-06T09:15:23;98260.38;;;7.67
76476;BMP280;65308;50.078;14.854;2024-01-06T09:17:49;98268.47;;;7.64
76476;BMP280;65308;50.078;14.854;2024-01-06T09:20:16;98272.34;;;7.41
76476;BMP280;65308;50.078;14.854;2024-01-06T09:22:48;98268.22;;;7.18
76476;BMP280;65308;50.078;14.854;2024-01-06T09:25:21;98266.81;;;7.04
76476;BMP280;65308;50.078;14.854;2024-01-06T09:27:49;98271.66;;;6.96
76476;BMP280;65308;50.078;14.854;2024-01-06T09:30:18;98266.44;;;6.71
76476;BMP280;65308;50.078;14.854;2024-01-06T09:32:46;98262.03;;;6.77
76476;BMP280;65308;50.078;14.854;2024-01-06T09:35:13;98264.59;;;6.80
76476;BMP280;65308;50.078;14.854;2024-01-06T09:37:40;98269.75;;;6.62
76476;BMP280;65308;50.078;14.854;2024-01-06T09:40:11;98273.28;;;6.59
76476;BMP280;65308;50.078;14.854;2024-01-06T09:42:38;98273.22;;;6.72
76476;BMP280;65308;50.078;14.854;2024-01-06T09:45:08;98282.78;;;6.82
76476;BMP280;65308;50.078;14.854;2024-01-06T09:47:40;98273.75;;;6.79
76476;BMP280;65308;50.078;14.854;2024-01-06T09:50:12;98276.94;;;6.74
76476;BMP280;65308;50.078;14.854;2024-01-06T09:52:41;98276.00;;;6.68
76476;BMP280;65308;50.078;14.854;2024-01-06T09:55:11;98277.94;;;6.68
76476;BMP280;65308;50.078;14.854;2024-01-06T09:57:38;98284.69;;;6.81
76476;BMP280;65308;50.078;14.854;2024-01-06T10:00:06;98276.59;;;6.85
76476;BMP280;65308;50.078;14.854;2024-01-06T10:02:34;98277.00;;;6.96
76476;BMP280;65308;50.078;14.854;2024-01-06T10:05:01;98279.72;;;7.05
76476;BMP280;65308;50.078;14.854;2024-01-06T10:07:29;98277.16;;;7.02
76476;BMP280;65308;50.078;14.854;2024-01-06T10:09:55;98279.31;;;6.94
76476;BMP280;65308;50.078;14.854;2024-01-06T10:12:23;98279.91;;;6.98
76476;BMP280;65308;50.078;14.854;2024-01-06T10:14:50;98282.06;;;7.03
76476;BMP280;65308;50.078;14.854;2024-01-06T10:17:19;98268.63;;;7.07
76476;BMP280;65308;50.078;14.854;2024-01-06T10:19:46;98269.22;;;7.11
76476;BMP280;65308;50.078;14.854;2024-01-06T10:22:14;98276.53;;;7.20
76476;BMP280;65308;50.078;14.854;2024-01-06T10:24:42;98279.91;;;6.98
76476;BMP280;65308;50.078;14.854;2024-01-06T10:27:09;98280.81;;;6.95
76476;BMP280;65308;50.078;14.854;2024-01-06T10:29:36;98273.00;;;7.01
76476;BMP280;65308;50.078;14.854;2024-01-06T10:32:03;98266.41;;;7.27
76476;BMP280;65308;50.078;14.854;2024-01-06T10:34:31;98272.88;;;7.48
76476;BMP280;65308;50.078;14.854;2024-01-06T10:36:58;98277.34;;;7.61
76476;BMP280;65308;50.078;14.854;2024-01-06T10:39:25;98271.00;;;7.58
76476;BMP280;65308;50.078;14.854;2024-01-06T10:41:55;98264.59;;;7.56
76476;BMP280;65308;50.078;14.854;2024-01-06T10:44:26;98263.00;;;7.27
76476;BMP280;65308;50.078;14.854;2024-01-06T10:46:54;98256.63;;;7.24
76476;BMP280;65308;50.078;14.854;2024-01-06T10:49:25;98252.22;;;7.40
76476;BMP280;65308;50.078;14.854;2024-01-06T10:51:53;98260.91;;;7.53
76476;BMP280;65308;50.078;14.854;2024-01-06T10:54:22;98254.69;;;7.56
76476;BMP280;65308;50.078;14.854;2024-01-06T10:56:51;98257.81;;;7.64
76476;BMP280;65308;50.078;14.854;2024-01-06T10:59:21;98257.72;;;7.67
76476;BMP280;65308;50.078;14.854;2024-01-06T11:01:51;98263.75;;;7.59
76476;BMP280;65308;50.078;14.854;2024-01-06T11:04:20;98260.06;;;7.65
76476;BMP280;65308;50.078;14.854;2024-01-06T11:06:48;98261.56;;;7.75
76476;BMP280;65308;50.078;14.854;2024-01-06T11:09:19;98252.47;;;7.54
76476;BMP280;65308;50.078;14.854;2024-01-06T11:11:48;98253.19;;;7.55
76476;BMP280;65308;50.078;14.854;2024-01-06T11:14:22;98251.44;;;7.61
76476;BMP280;65308;50.078;14.854;2024-01-06T11:16:49;98261.69;;;7.63
76476;BMP280;65308;50.078;14.854;2024-01-06T11:19:43;98259.16;;;7.59
76476;BMP280;65308;50.078;14.854;2024-01-06T11:22:19;98265.34;;;7.56
76476;BMP280;65308;50.078;14.854;2024-01-06T11:24:47;98264.03;;;7.61
76476;BMP280;65308;50.078;14.854;2024-01-06T11:27:17;98257.72;;;7.67
76476;BMP280;65308;50.078;14.854;2024-01-06T11:29:46;98253.63;;;7.85
76476;BMP280;65308;50.078;14.854;2024-01-06T11:32:18;98257.94;;;8.00
76476;BMP280;65308;50.078;14.854;2024-01-06T11:34:52;98257.81;;;8.13
76476;BMP280;65308;50.078;14.854;2024-01-06T11:37:25;98259.34;;;8.33
76476;BMP280;65308;50.078;14.854;2024-01-06T11:39:52;98260.97;;;8.48
76476;BMP280;65308;50.078;14.854;2024-01-06T11:42:19;98258.00;;;8.56
76476;BMP280;65308;50.078;14.854;2024-01-06T11:44:51;98261.84;;;8.64
76476;BMP280;65308;50.078;14.854;2024-01-06T11:47:18;98262.16;;;8.75
76476;BMP280;65308;50.078;14.854;2024-01-06T11:49:54;98262.91;;;8.76
76476;BMP280;65308;50.078;14.854;2024-01-06T11:52:22;98259.50;;;8.75
76476;BMP280;65308;50.078;14.854;2024-01-06T11:54:49;98255.06;;;8.72
76476;BMP280;65308;50.078;14.854;2024-01-06T11:57:16;98253.72;;;8.77
76476;BMP280;65308;50.078;14.854;2024-01-06T11:59:42;98249.59;;;8.57
76476;BMP280;65308;50.078;14.854;2024-01-06T12:02:12;98244.69;;;8.65
76476;BMP280;65308;50.078;14.854;2024-01-06T12:04:39;98249.59;;;8.66
76476;BMP280;65308;50.078;14.854;2024-01-06T12:07:07;98244.97;;;8.67
76476;BMP280;65308;50.078;14.854;2024-01-06T12:09:34;98242.63;;;8.69
76476;BMP280;65308;50.078;14.854;2024-01-06T12:12:01;98239.81;;;8.54
76476;BMP280;65308;50.078;14.854;2024-01-06T12:14:29;98239.50;;;8.52
76476;BMP280;65308;50.078;14.854;2024-01-06T12:16:56;98235.34;;;8.42
76476;BMP280;65308;50.078;14.854;2024-01-06T12:19:29;98248.25;;;8.43
76476;BMP280;65308;50.078;14.854;2024-01-06T12:21:56;98249.44;;;8.52
76476;BMP280;65308;50.078;14.854;2024-01-06T12:24:23;98251.78;;;8.59
76476;BMP280;65308;50.078;14.854;2024-01-06T12:26:50;98251.47;;;8.57
76476;BMP280;65308;50.078;14.854;2024-01-06T12:29:17;98254.91;;;8.57
76476;BMP280;65308;50.078;14.854;2024-01-06T12:31:44;98253.00;;;8.58
76476;BMP280;65308;50.078;14.854;2024-01-06T12:34:10;98252.09;;;8.52
76476;BMP280;65308;50.078;14.854;2024-01-06T12:36:40;98258.28;;;8.21
76476;BMP280;65308;50.078;14.854;2024-01-06T12:39:10;98256.03;;;8.01
76476;BMP280;65308;50.078;14.854;2024-01-06T12:41:39;98260.56;;;7.82
76476;BMP280;65308;50.078;14.854;2024-01-06T12:44:06;98254.59;;;7.69
76476;BMP280;65308;50.078;14.854;2024-01-06T12:46:33;98254.59;;;7.69
76476;BMP280;65308;50.078;14.854;2024-01-06T12:49:00;98262.53;;;7.60
76476;BMP280;65308;50.078;14.854;2024-01-06T12:51:27;98251.25;;;7.46
76476;BMP280;65308;50.078;14.854;2024-01-06T12:53:56;98257.31;;;7.47
76476;BMP280;65308;50.078;14.854;2024-01-06T12:56:22;98247.59;;;7.31
76476;BMP280;65308;50.078;14.854;2024-01-06T12:58:49;98245.47;;;7.17
76476;BMP280;65308;50.078;14.854;2024-01-06T13:01:16;98260.38;;;7.14
76476;BMP280;65308;50.078;14.854;2024-01-06T13:03:43;98256.78;;;7.30
76476;BMP280;65308;50.078;14.854;2024-01-06T13:06:10;98264.59;;;7.24
76476;BMP280;65308;50.078;14.854;2024-01-06T13:08:37;98265.34;;;7.25
76476;BMP280;65308;50.078;14.854;2024-01-06T13:11:05;98269.09;;;7.15
76476;BMP280;65308;50.078;14.854;2024-01-06T13:13:31;98263.34;;;7.16
76476;BMP280;65308;50.078;14.854;2024-01-06T13:15:58;98263.78;;;7.15
76476;BMP280;65308;50.078;14.854;2024-01-06T13:18:25;98265.91;;;7.29
76476;BMP280;65308;50.078;14.854;2024-01-06T13:20:52;98264.69;;;7.43
76476;BMP280;65308;50.078;14.854;2024-01-06T13:23:19;98264.88;;;7.48
76476;BMP280;65308;50.078;14.854;2024-01-06T13:25:46;98271.84;;;7.55
76476;BMP280;65308;50.078;14.854;2024-01-06T13:28:14;98265.38;;;7.65
76476;BMP280;65308;50.078;14.854;2024-01-06T13:30:40;98257.25;;;7.69
76476;BMP280;65308;50.078;14.854;2024-01-06T13:33:07;98274.78;;;7.79
76476;BMP280;65308;50.078;14.854;2024-01-06T13:35:35;98270.22;;;7.89
76476;BMP280;65308;50.078;14.854;2024-01-06T13:38:02;98262.81;;;8.02
76476;BMP280;65308;50.078;14.854;2024-01-06T13:40:30;98269.69;;;8.12
76476;BMP280;65308;50.078;14.854;2024-01-06T13:42:57;98270.56;;;8.28
76476;BMP280;65308;50.078;14.854;2024-01-06T13:45:25;98270.16;;;8.38
76476;BMP280;65308;50.078;14.854;2024-01-06T13:47:55;98269.25;;;8.23
76476;BMP280;65308;50.078;14.854;2024-01-06T13:50:22;98263.47;;;8.15
76476;BMP280;65308;50.078;14.854;2024-01-06T13:52:48;98278.16;;;7.80
76476;BMP280;65308;50.078;14.854;2024-01-06T13:55:15;98277.19;;;7.64
76476;BMP280;65308;50.078;14.854;2024-01-06T13:57:42;98277.09;;;7.68
76476;BMP280;65308;50.078;14.854;2024-01-06T14:00:09;98278.16;;;7.80
76476;BMP280;65308;50.078;14.854;2024-01-06T14:02:38;98277.69;;;7.81
76476;BMP280;65308;50.078;14.854;2024-01-06T14:05:04;98277.66;;;7.63
76476;BMP280;65308;50.078;14.854;2024-01-06T14:07:34;98284.88;;;7.62
76476;BMP280;65308;50.078;14.854;2024-01-06T14:10:00;98287.03;;;7.45